Hovedside
METAR-TAF:

METAR-TAF

Lufthavner :

Lanseria, Sør-Afrika

breddegrad: 25-56S, lengdegrad: 027-56E, høyde over havet: 1377 m

Gjeldene værobservasjon

Denne rapporten ble laget for 52 minutter siden, klokken 01:00 UTC
Vind 5 kt fra Sørvest
Temperatur 4°C
Luftfuktighet 70%
Trykk 1030 hPa

METAR: FALA 140100Z AUTO 23005KT //// ///////// 04/M01 Q1030

Tid: 03:52 (01:52 UTC)

Varsel

Denne rapporten ble laget for 3 timer og 52 minutter siden, klokken 22:00 UTC
Varsel gyldig fra 14. klokken 00 UTC til 14. klokken 24 UTC
Vind 3 kt fra skiftende retning
Sikt 10 km eller mer
ingen skyer under 1500 m og ingen bygeskyer

TAF: FALA 132200Z 1400/1424 VRB03KT CAVOK TX20/1413Z TN05/1405Z

Værobservasjoner og værvarsel for over 4000 flyplasser (METAR- og TAF-rapporter).

Tilgjengelige stasjoner er representert av de røde og gule prikkene på kartet.

Hold musepekeren over prikken for å se navnet på stasjonen.

Klikk så for å se værobservasjoner og -varsler.

For å forandre kartet kan du klikke på den grønne knappen med svart kryss for å zoome inn, på den grønne knappen med strek for å zoome ut, eller på de grønne pilene for å se tilstøtende kart.


METAR-TAF: